Startpagina
METAR-TAF:

METAR-TAF

Vliegvelden :

Schaffen

Diest, België

breedte: 51-00N, lengte: 005-04E, hoogte: 30 m

Actueel weer

Dit bericht is 32 minuten geleden gemaakt, om 12:34 UTC
Wind 8 kt uit het zuiden
Temperatuur 14°C
Vochtigheid 94%
Druk 1006 hPa
Zicht: 3600 m
regen,

METAR: EBDT 161234Z AUTO 19008KT 3600 RA OVC008/// 14/13 Q1006 YLO

Tijdstip: 15:06 (13:06 UTC)


TAF: ontbreekt

Waarnemingen en weersverwachtingen van meer dan 4000 vliegvelden (METAR en TAF).

De beschikbare stations zijn de gele en rode punten op de kaart.

Ga met uw muis naar het station om de naam te zien.

Klik dan om waarnemingen en weersverwachtingen te zien.

kaart wijzigen: klik op de groene knoppen met een zwart kruis om in te zoomen, op de groene knop met een streepje om uit te zoomen of op de groene pijlen voor aangrenzende kaarten.


METAR-TAF: